Sunday, June 17, 2018, 9:55 PM EDT
Back to Local

KCQX, Chatham Municipal Airport

Location: Chatham, MA, United States Lat: 41.683
Local Time: 9:55 PM EDT ( 1:55 GMT) Lon: -70
Time Zone: US/Eastern Elev: 68 ft

Show me the last for .
Show Decoded

2018-06-17 20:52 METAR KCQX 180052Z AUTO 21004KT 10SM CLR 18/16 A3011 RMK AO2 SLP195 T01830156
                 TSNO =
2018-06-17 19:52 METAR KCQX 172352Z AUTO 22006KT 10SM CLR 19/14 A3011 RMK AO2 SLP197 T01940144
                 10272 20194 52002 TSNO =
2018-06-17 18:52 METAR KCQX 172252Z AUTO 22005KT 10SM CLR 21/15 A3011 RMK AO2 SLP197 T02110150
                 TSNO =
2018-06-17 17:52 METAR KCQX 172152Z AUTO 21004KT 10SM CLR 21/13 A3010 RMK AO2 SLP194 T02060133
                 TSNO =
2018-06-17 16:52 METAR KCQX 172052Z AUTO 18005KT 10SM CLR 24/11 A3010 RMK AO2 SLP194 T02390111
                 51007 TSNO =
2018-06-17 15:52 METAR KCQX 171952Z AUTO VRB05KT 10SM CLR 26/10 A3009 RMK AO2 SLP192 T02610100
                 TSNO =
2018-06-17 14:52 METAR KCQX 171852Z AUTO VRB04KT 10SM CLR 26/13 A3009 RMK AO2 SLP191 T02610133
                 TSNO =
2018-06-17 13:52 METAR KCQX 171752Z AUTO VRB04KT 10SM CLR 25/12 A3008 RMK AO2 SLP188 T02500122
                 10267 20222 58005 TSNO =
2018-06-17 12:52 METAR KCQX 171652Z AUTO 10007KT 10SM CLR 26/10 A3009 RMK AO2 SLP191 T02560100
                 TSNO =
2018-06-17 11:52 METAR KCQX 171552Z AUTO 07005KT 10SM CLR 26/11 A3010 RMK AO2 SLP194 T02610106
                 TSNO =
2018-06-17 10:52 METAR KCQX 171452Z AUTO 05005KT 10SM CLR 26/11 A3010 RMK AO2 SLP192 T02610106
                 53012 TSNO =
2018-06-17 09:52 METAR KCQX 171352Z AUTO 08003KT 10SM CLR 26/12 A3008 RMK AO2 SLP187 T02610122
                 TSNO =
2018-06-17 08:52 METAR KCQX 171252Z AUTO VRB03KT 10SM CLR 24/13 A3006 RMK AO2 SLP180 T02440128
                 TSNO $ =
2018-06-17 07:52 METAR KCQX 171152Z AUTO 30004KT 10SM CLR 22/14 A3006 RMK AO2 SLP181 T02220139
                 10222 20139 53013 TSNO $ =
2018-06-17 06:52 METAR KCQX 171052Z AUTO 30003KT 10SM CLR 19/13 A3004 RMK AO2 SLP174 T01940133
                 TSNO $ =
2018-06-17 05:52 METAR KCQX 170952Z AUTO 00000KT 10SM CLR 16/13 A3003 RMK AO2 SLP170 T01560128
                 TSNO $ =
2018-06-17 04:52 METAR KCQX 170852Z AUTO 00000KT 10SM CLR 14/13 A3002 RMK AO2 SLP167 T01440128
                 53006 TSNO $ =
2018-06-17 03:52 METAR KCQX 170752Z AUTO 00000KT 10SM CLR 15/13 A3001 RMK AO2 SLP162 T01500128
                 TSNO $ =
2018-06-17 02:52 METAR KCQX 170652Z AUTO 00000KT 10SM CLR 16/13 A3000 RMK AO2 SLP160 T01560133
                 TSNO $ =
2018-06-17 01:52 METAR KCQX 170552Z AUTO 23003KT 10SM CLR 15/13 A3000 RMK AO2 SLP161 T01500133
                 10206 20150 50000 TSNO $ =
2018-06-17 00:52 METAR KCQX 170452Z AUTO 00000KT 10SM CLR 16/13 A3001 RMK AO2 SLP163 T01560133
                 402610133 TSNO $ =
2018-06-16 23:52 METAR KCQX 170352Z AUTO 00000KT 10SM CLR 17/13 A3001 RMK AO2 SLP165 T01670133
                 TSNO $ =
2018-06-16 22:52 METAR KCQX 170252Z AUTO 25003KT 10SM CLR 18/13 A3000 RMK AO2 SLP161 T01780133
                 TSNO $ =

Support USWX by starting your Amazon purchase here.